• Join FlightAware (Why Join?)
  • Login
  • US Flag 
Rudolph Flight #1: Arrived! 
10:52PM EST


 

Airport Tracker/Info


-or-


 

Live Flight TrackerFlight Track Log ✈ RPA3228 ✈ 08-Jul-2013 ✈ KBNA - KDCA

Flight Track Log - Related Links

Times and Time Zones

All times are in EDT time to prevent confusion due to time zone crossing. See the RPA3228 flight status page for this flight to view local times or setup timezone preferences in your user account.

Time Position Orientation Groundspeed Altitude Reporting Facility
EDT Latitude Longitude Course Direction KTS MPH feet Rate Location/Type
09:20AM 36.1000 -86.6833 141° Southeast 156 180 1,700  Level Nashville TRACON
09:20AM 36.0833 -86.6667 141° Southeast 181 208 2,700 1,920 Climbing Nashville TRACON
09:21AM 36.0500 -86.6167 129° Southeast 246 283 4,600 2,640 Climbing Nashville TRACON
09:22AM 36.0833 -86.5167 68° East 275 316 8,000 2,940 Climbing Nashville TRACON
09:23AM 36.1047 -86.4292 73° East 315 362 10,700 2,460 Climbing Memphis Center
09:24AM 36.1306 -86.3303 72° East 308 354 12,900 2,280 Climbing Memphis Center
09:25AM 36.1586 -86.2311 71° East 303 349 15,300 2,160 Climbing Memphis Center
09:26AM 36.1864 -86.1242 72° East 315 362 17,300 1,800 Climbing Memphis Center
09:27AM 36.2244 -86.0167 66° East 322 371 18,900 1,800 Climbing Memphis Center
09:28AM 36.2728 -85.9086 61° Northeast 342 394 21,000 1,740 Climbing Memphis Center
09:30AM 36.3386 -85.7614 61° Northeast 358 412 23,300 1,500 Climbing Indianapolis Center
09:31AM 36.3900 -85.6547 59° Northeast 360 414 24,900 1,500 Climbing Indianapolis Center
09:32AM 36.4425 -85.5456 59° Northeast 366 421 26,400 960 Climbing Indianapolis Center
09:33AM 36.4944 -85.4342 60° Northeast 370 426 27,000 240 Climbing Indianapolis Center
09:34AM 36.5583 -85.2997 59° Northeast 374 430 27,000  Level Indianapolis Center
09:35AM 36.5878 -85.1775 73° East 385 443 27,000  Level Indianapolis Center
09:36AM 36.5794 -85.0431 94° East 387 445 27,000 480 Level Indianapolis Center
09:37AM 36.5706 -84.9086 95° East 387 445 28,100 1,500 Climbing Indianapolis Center
09:38AM 36.5653 -84.7731 93° East 388 447 30,100 1,860 Climbing Indianapolis Center
09:39AM 36.5658 -84.6433 90° East 378 435 32,000 1,380 Climbing Indianapolis Center
09:40AM 36.5875 -84.5186 78° East 373 429 33,000 480 Climbing Indianapolis Center
09:41AM 36.6386 -84.3839 65° Northeast 362 417 33,100 780 Climbing Indianapolis Center
09:42AM 36.6808 -84.2708 65° Northeast 358 412 34,700 900 Climbing Indianapolis Center
09:43AM 36.7214 -84.1594 66° East 353 406 35,000 120 Climbing Indianapolis Center
09:44AM 36.7625 -84.0483 65° Northeast 352 405 35,000  Level Indianapolis Center
09:45AM 36.8019 -83.9375 66° East 351 404 35,000  Level Indianapolis Center
09:46AM 36.8433 -83.8289 65° Northeast 349 402 35,000  Level Indianapolis Center
09:47AM 36.8908 -83.6997 65° Northeast 347 399 35,000  Level Indianapolis Center
09:48AM 36.9308 -83.5878 66° East 350 403 35,000  Level Indianapolis Center
09:49AM 36.9700 -83.4786 66° East 345 397 35,000  Level Indianapolis Center
09:50AM 37.0092 -83.3689 66° East 344 396 35,000  Level Indianapolis Center
09:52AM 37.0489 -83.2589 66° East 343 395 35,000  Level Indianapolis Center
09:53AM 37.0881 -83.1497 66° East 341 392 35,000  Level Indianapolis Center
09:54AM 37.1275 -83.0397 66° East 340 391 35,000  Level Indianapolis Center
09:55AM 37.1725 -82.9097 66° East 342 394 35,000  Level Indianapolis Center
09:56AM 37.2108 -82.7989 66° East 342 394 35,000  Level Indianapolis Center
09:57AM 37.2653 -82.7050 54° Northeast 331 381 35,000  Level Indianapolis Center
09:58AM 37.3250 -82.6158 50° Northeast 330 380 35,000  Level Indianapolis Center
09:59AM 37.3833 -82.5253 51° Northeast 333 383 35,000  Level Indianapolis Center
10:00AM 37.4417 -82.4350 51° Northeast 332 382 35,000  Level Indianapolis Center
10:01AM 37.5097 -82.3283 51° Northeast 334 384 35,000  Level Indianapolis Center
10:02AM 37.5672 -82.2347 52° Northeast 337 388 35,000  Level Indianapolis Center
10:03AM 37.6172 -82.1347 58° Northeast 335 386 35,000  Level Indianapolis Center
10:04AM 37.6481 -82.0169 72° East 349 402 35,000  Level Indianapolis Center
10:05AM 37.6819 -81.9008 70° East 351 404 35,000  Level Indianapolis Center
10:06AM 37.7189 -81.7686 71° East 343 395 35,000  Level Indianapolis Center
10:07AM 37.7517 -81.6553 70° East 343 395 35,000  Level Indianapolis Center
10:08AM 37.7828 -81.5408 71° East 343 395 35,000  Level Indianapolis Center
10:09AM 37.8131 -81.4367 70° East 344 396 35,000  Level Indianapolis Center
10:10AM 37.8500 -81.3036 71° East 352 405 35,000  Level Indianapolis Center
10:11AM 37.8814 -81.1886 71° East 348 400 35,000  Level Indianapolis Center
10:12AM 37.9144 -81.0733 70° East 349 402 35,000  Level Indianapolis Center
10:13AM 37.9489 -80.9586 69° East 350 403 35,000  Level Indianapolis Center
10:14AM 37.9811 -80.8458 70° East 345 397 35,000  Level Indianapolis Center
10:15AM 38.0217 -80.7067 70° East 349 402 35,000  Level Indianapolis Center
10:16AM 38.0556 -80.5897 70° East 353 406 35,000  Level Indianapolis Center
10:17AM 38.0900 -80.4706 70° East 359 413 35,000 -360 Level Indianapolis Center
10:18AM 38.1250 -80.3519 69° East 360 414 34,300 -720 Descending Indianapolis Center
10:19AM 38.1583 -80.2342 70° East 357 411 33,600 -720 Descending Indianapolis Center
10:21AM 38.1992 -80.0969 69° East 358 412 32,800 -720 Descending Washington Center
10:22AM 38.2353 -79.9694 70° East 363 418 32,100 -780 Descending Washington Center
10:23AM 38.2753 -79.8394 69° East 376 433 31,300 -1,020 Descending Washington Center
10:24AM 38.3158 -79.6911 71° East 396 456 30,100 -1,200 Descending Washington Center
10:25AM 38.3561 -79.5528 70° East 401 461 29,000 -1,140 Descending Washington Center
10:26AM 38.3939 -79.4144 71° East 406 467 27,900 -1,020 Descending Washington Center
10:27AM 38.4297 -79.2731 72° East 406 467 27,000 -840 Descending Washington Center
10:28AM 38.4547 -79.1339 77° East 406 467 26,300 -1,080 Descending Washington Center
10:29AM 38.4772 -79.0050 77° East 412 474 24,900 -1,500 Descending Washington Center
10:30AM 38.5000 -78.8575 79° East 412 474 23,400 -1,500 Descending Washington Center
10:31AM 38.5250 -78.7072 78° East 418 481 21,900 -1,500 Descending Washington Center
10:32AM 38.5453 -78.5622 80° East 423 487 20,400 -1,560 Descending Washington Center
10:33AM 38.5675 -78.4169 79° East 423 487 18,900 -1,500 Descending Washington Center
10:34AM 38.5917 -78.2772 77° East 413 475 17,500 -1,380 Descending Washington Center
10:35AM 38.6319 -78.1431 69° East 403 464 16,100 -1,440 Descending Washington Center
10:36AM 38.6722 -78.0142 68° East 393 452 14,700 -1,380 Descending Washington Center
10:37AM 38.7122 -77.8931 67° East 381 438 13,400 -1,260 Descending Washington Center
10:38AM 38.7556 -77.7958 60° Northeast 348 400 12,300 -1,140 Descending Washington Center
10:39AM 38.8156 -77.7069 49° Northeast 330 380 11,100 -1,500 Descending Washington Center
10:40AM 38.8817 -77.6156 47° Northeast 313 360 9,400 -1,500 Descending Washington Center
10:41AM 38.9333 -77.5333 51° Northeast 287 330 8,100 -720 Descending Potomac TRACON
10:42AM 38.9667 -77.4500 63° Northeast 247 284 7,900 -780 Descending Potomac TRACON
10:43AM 38.9833 -77.3667 76° East 225 259 6,600 -1,320 Descending Potomac TRACON
10:44AM 39.0167 -77.3000 57° Northeast 221 254 5,400 -1,620 Descending Potomac TRACON
10:45AM 39.0000 -77.2333 108° East 213 245 3,500 -1,380 Descending Potomac TRACON
10:46AM 38.9667 -77.1667 123° Southeast 211 243 2,700 -900 Descending Potomac TRACON
10:47AM 38.9333 -77.1167 131° Southeast 195 224 1,800 -900 Descending Potomac TRACON
10:48AM 38.9000 -77.0667 131° Southeast 168 193 900 -780 Descending Potomac TRACON
10:49AM 38.8667 -77.0333 142° Southeast 134 154 300 -600 Descending Potomac TRACON
10:51AM 38.8519 -77.0377 180° South  Level Estimated